createdAt,value
2024-05-09T00:00:36.177Z,109254.63
2024-05-09T00:03:11.353Z,110030.59
2024-05-09T00:05:44.318Z,110548.00
2024-05-09T00:08:15.234Z,110289.28
2024-05-09T00:10:45.868Z,110030.59
2024-05-09T00:13:18.974Z,110030.59
2024-05-09T00:15:49.313Z,109254.63
2024-05-09T00:18:19.780Z,109771.94
2024-05-09T00:20:50.319Z,110548.00
2024-05-09T00:23:20.732Z,110289.28
2024-05-09T00:25:50.982Z,109513.28
2024-05-09T00:28:25.860Z,108996.00
2024-05-09T00:30:56.403Z,108996.00
2024-05-09T00:33:27.007Z,109513.28
2024-05-09T00:35:57.353Z,110030.59
2024-05-09T00:38:27.611Z,109513.28
2024-05-09T00:40:58.055Z,109513.28
2024-05-09T00:43:32.855Z,110289.28
2024-05-09T00:46:03.343Z,109771.94
2024-05-09T00:48:34.786Z,109771.94
2024-05-09T00:51:05.745Z,108737.41
2024-05-09T00:53:37.073Z,109513.28
2024-05-09T00:56:08.448Z,108996.00
2024-05-09T00:58:42.332Z,109513.28
2024-05-09T01:01:13.498Z,108996.00
2024-05-09T01:03:45.252Z,108996.00
2024-05-09T01:06:17.118Z,109513.28
2024-05-09T01:08:47.551Z,108996.00
2024-05-09T01:11:18.752Z,109513.28
2024-05-09T01:13:52.053Z,110030.59
2024-05-09T01:16:22.546Z,110548.00
2024-05-09T01:18:53.246Z,110548.00
2024-05-09T01:21:23.749Z,110806.75
2024-05-09T01:23:56.791Z,110806.75
2024-05-09T01:26:27.074Z,109254.63
2024-05-09T01:28:57.378Z,108996.00
2024-05-09T01:31:27.735Z,109254.63
2024-05-09T01:33:58.111Z,109771.94
2024-05-09T01:36:28.450Z,109513.28
2024-05-09T01:39:01.606Z,110030.59
2024-05-09T01:41:31.909Z,110548.00
2024-05-09T01:44:02.230Z,109771.94
2024-05-09T01:46:32.433Z,109254.63
2024-05-09T01:49:03.079Z,109254.63
2024-05-09T01:51:33.492Z,109513.28
2024-05-09T01:54:06.334Z,110289.28
2024-05-09T01:56:36.626Z,110806.75
2024-05-09T01:59:07.846Z,110289.28
2024-05-09T02:01:55.753Z,110289.28
2024-05-09T02:04:28.223Z,110030.59
2024-05-09T02:06:58.722Z,109513.28
2024-05-09T02:09:31.629Z,109254.63
2024-05-09T02:12:02.216Z,109771.94
2024-05-09T02:14:32.819Z,110030.59
2024-05-09T02:17:03.513Z,109254.63
2024-05-09T02:19:33.927Z,109513.28
2024-05-09T02:22:04.081Z,110806.75
2024-05-09T02:24:36.959Z,110548.00
2024-05-09T02:27:07.637Z,110030.59
2024-05-09T02:29:37.966Z,109771.94
2024-05-09T02:32:09.052Z,110548.00
2024-05-09T02:34:39.553Z,110548.00
2024-05-09T02:37:09.671Z,110030.59
2024-05-09T02:39:40.160Z,110030.59
2024-05-09T02:42:10.488Z,110030.59
2024-05-09T02:44:38.360Z,110030.59
2024-05-09T02:47:08.804Z,110548.00
2024-05-09T02:49:36.586Z,108996.00
2024-05-09T02:52:07.675Z,109771.94
2024-05-09T02:54:35.445Z,110030.59
2024-05-09T02:57:08.517Z,110289.28
2024-05-09T02:59:36.299Z,110289.28
2024-05-09T03:02:06.716Z,110289.28
2024-05-09T03:04:34.670Z,110548.00
2024-05-09T03:07:04.929Z,110030.59
2024-05-09T03:09:32.313Z,110289.28
2024-05-09T03:12:02.680Z,109771.94
2024-05-09T03:14:33.058Z,109513.28
2024-05-09T03:17:03.305Z,110289.28
2024-05-09T03:19:31.228Z,110548.00
2024-05-09T03:22:02.070Z,110806.75
2024-05-09T03:24:29.782Z,110548.00
2024-05-09T03:26:59.997Z,110030.59
2024-05-09T03:29:27.929Z,110548.00
2024-05-09T03:32:01.646Z,110806.75
2024-05-09T03:34:29.482Z,110806.75
2024-05-09T03:36:59.697Z,111065.50
2024-05-09T03:39:29.954Z,109771.94
2024-05-09T03:42:00.396Z,109513.28
2024-05-09T03:44:30.601Z,110030.59
2024-05-09T03:47:00.799Z,110806.75
2024-05-09T03:49:30.994Z,110548.00
2024-05-09T03:51:58.652Z,110289.28
2024-05-09T03:54:29.005Z,109771.94
2024-05-09T03:56:57.359Z,109771.94
2024-05-09T03:59:27.719Z,110030.59
2024-05-09T04:01:55.582Z,110030.59
2024-05-09T04:04:28.519Z,110289.28
2024-05-09T04:06:56.029Z,110289.28
2024-05-09T04:09:26.177Z,109771.94
2024-05-09T04:11:53.847Z,110030.59
2024-05-09T04:14:24.344Z,110289.28
2024-05-09T04:16:52.137Z,110806.75
2024-05-09T04:19:22.665Z,111324.28
2024-05-09T04:21:52.855Z,111324.28
2024-05-09T04:24:23.188Z,111065.50
2024-05-09T04:26:51.028Z,110289.28
2024-05-09T04:29:21.402Z,110289.28
2024-05-09T04:31:48.982Z,111583.06
2024-05-09T04:34:19.297Z,112359.53
2024-05-09T04:36:47.031Z,112618.41
2024-05-09T04:39:19.786Z,112618.41
2024-05-09T04:41:47.637Z,112100.69
2024-05-09T04:44:18.050Z,112359.53
2024-05-09T04:46:47.506Z,112877.31
2024-05-09T04:49:18.377Z,112618.41
2024-05-09T04:51:46.248Z,112877.31
2024-05-09T04:54:26.261Z,112359.53
2024-05-09T04:57:01.475Z,112877.31
2024-05-09T04:59:31.823Z,113136.22
2024-05-09T05:01:59.667Z,113136.22
2024-05-09T05:04:30.111Z,113136.22
2024-05-09T05:06:59.750Z,113395.13
2024-05-09T05:09:34.582Z,113395.13
2024-05-09T05:12:05.822Z,113654.06
2024-05-09T05:14:36.172Z,114172.03
2024-05-09T05:17:06.383Z,114172.03
2024-05-09T05:19:34.307Z,114431.03
2024-05-09T05:22:04.695Z,114690.03
2024-05-09T05:24:35.354Z,114690.03
2024-05-09T05:27:05.921Z,114431.03
2024-05-09T05:29:33.788Z,114431.03
2024-05-09T05:32:04.233Z,114431.03
2024-05-09T05:34:32.174Z,114690.03
2024-05-09T05:37:02.335Z,114949.09
2024-05-09T05:39:29.745Z,114690.03
2024-05-09T05:42:02.766Z,114690.03
2024-05-09T05:44:30.465Z,115208.13
2024-05-09T05:47:00.763Z,115467.22
2024-05-09T05:49:28.651Z,115467.22
2024-05-09T05:51:58.965Z,115467.22
2024-05-09T05:54:26.654Z,115467.22
2024-05-09T05:56:56.902Z,115726.31
2024-05-09T05:59:29.540Z,115467.22
2024-05-09T06:02:00.066Z,115726.31
2024-05-09T06:04:27.924Z,115726.31
2024-05-09T06:06:58.213Z,115726.31
2024-05-09T06:09:25.676Z,115728.34
2024-05-09T06:11:56.223Z,115728.34
2024-05-09T06:14:26.591Z,115728.34
2024-05-09T06:16:58.208Z,115728.34
2024-05-09T06:19:26.264Z,115728.34
2024-05-09T06:21:56.540Z,115726.31
2024-05-09T06:24:24.122Z,115728.34
2024-05-09T06:26:54.259Z,115728.34
2024-05-09T06:29:22.035Z,115726.31
2024-05-09T06:31:57.173Z,115728.34
2024-05-09T06:34:27.292Z,115728.34
2024-05-09T06:36:57.715Z,115728.34
2024-05-09T06:39:25.352Z,115728.34
2024-05-09T06:41:55.736Z,115726.31
2024-05-09T06:44:26.651Z,115726.31
2024-05-09T06:47:00.071Z,115726.31
2024-05-09T06:49:30.283Z,115467.22
2024-05-09T06:52:00.592Z,115467.22
2024-05-09T06:54:28.236Z,115467.22
2024-05-09T06:56:58.601Z,114690.03
2024-05-09T06:59:26.291Z,115208.13
2024-05-09T07:01:59.340Z,114949.09
2024-05-09T07:04:27.072Z,115208.13
2024-05-09T07:06:57.352Z,114690.03
2024-05-09T07:09:25.062Z,114172.03
2024-05-09T07:11:55.832Z,114431.03
2024-05-09T07:14:23.506Z,114690.03
2024-05-09T07:16:54.090Z,114690.03
2024-05-09T07:19:24.795Z,114431.03
2024-05-09T07:21:58.291Z,113913.03
2024-05-09T07:24:25.929Z,113654.06
2024-05-09T07:26:56.773Z,113654.06
2024-05-09T07:29:24.464Z,114172.03
2024-05-09T07:31:54.948Z,113395.13
2024-05-09T07:34:25.600Z,113913.03
2024-05-09T07:36:56.968Z,113654.06
2024-05-09T07:39:24.736Z,113136.22
2024-05-09T07:41:55.103Z,111583.06
2024-05-09T07:44:22.760Z,110548.00
2024-05-09T07:48:13.653Z,111841.88
2024-05-09T07:51:32.192Z,108996.00
2024-05-09T07:53:33.114Z,108737.41
2024-05-09T07:55:21.533Z,109771.94
2024-05-09T07:57:51.840Z,109254.63
2024-05-09T08:00:26.792Z,108737.41
2024-05-09T08:02:59.925Z,110289.28
2024-05-09T08:05:30.498Z,109254.63
2024-05-09T08:08:00.789Z,108220.28
2024-05-09T08:10:29.252Z,104602.44
2024-05-09T08:13:00.616Z,104860.72
2024-05-09T08:15:28.521Z,104602.44
2024-05-09T08:17:59.612Z,101246.34
2024-05-09T08:20:33.683Z,96604.81
2024-05-09T08:23:05.644Z,96604.81
2024-05-09T08:25:33.512Z,97377.97
2024-05-09T08:28:03.691Z,93256.44
2024-05-09T08:30:36.729Z,90168.50
2024-05-09T08:33:09.374Z,87854.38
2024-05-09T08:35:40.927Z,84000.91
2024-05-09T08:38:11.402Z,82717.38
2024-05-09T08:40:39.271Z,81434.31
2024-05-09T08:43:12.432Z,67587.84
2024-05-09T08:45:44.319Z,70124.13
2024-05-09T08:48:16.904Z,68238.72
2024-05-09T08:50:50.800Z,65013.59
2024-05-09T08:53:21.494Z,64058.19
2024-05-09T08:55:51.366Z,63565.66
2024-05-09T08:58:21.936Z,63180.84
2024-05-09T09:00:49.980Z,60647.75
2024-05-09T09:03:21.782Z,58206.13
2024-05-09T09:06:03.058Z,57308.38
2024-05-09T09:08:33.730Z,56880.50
2024-05-09T09:11:01.675Z,57031.75
2024-05-09T09:13:32.327Z,56273.59
2024-05-09T09:16:00.367Z,55674.75
2024-05-09T09:18:31.366Z,55137.66
2024-05-09T09:21:03.238Z,54960.66
2024-05-09T09:23:33.641Z,54718.00
2024-05-09T09:26:01.805Z,54727.94
2024-05-09T09:28:32.495Z,54624.53
2024-05-09T09:31:03.809Z,54519.13
2024-05-09T09:33:36.316Z,54562.88
2024-05-09T09:36:08.983Z,54481.34
2024-05-09T09:38:40.643Z,54360.03
2024-05-09T09:41:11.014Z,54369.97
2024-05-09T09:43:42.587Z,54411.75
2024-05-09T09:46:12.988Z,54272.53
2024-05-09T09:48:44.314Z,54119.44
2024-05-09T09:51:16.078Z,54047.84
2024-05-09T09:53:47.333Z,54179.09
2024-05-09T09:56:18.198Z,54171.13
2024-05-09T09:58:49.638Z,54091.59
2024-05-09T10:01:17.320Z,54012.06
2024-05-09T10:03:48.245Z,53970.31
2024-05-09T10:06:19.608Z,53924.56
2024-05-09T10:08:51.159Z,53888.78
2024-05-09T10:11:20.870Z,53849.03
2024-05-09T10:13:51.199Z,53833.13
2024-05-09T10:16:21.800Z,53676.03
2024-05-09T10:18:52.644Z,53566.69
2024-05-09T10:21:24.205Z,53586.56
2024-05-09T10:24:01.890Z,53518.97
2024-05-09T10:26:34.198Z,53626.34
2024-05-09T10:29:14.314Z,53680.03
2024-05-09T10:31:43.051Z,53658.16
2024-05-09T10:34:20.858Z,53552.78
2024-05-09T10:36:55.487Z,53477.22
2024-05-09T10:39:28.057Z,53509.03
2024-05-09T10:41:55.749Z,53487.19
2024-05-09T10:44:26.118Z,53409.63
2024-05-09T10:46:54.942Z,53346.03
2024-05-09T10:49:25.869Z,53276.44
2024-05-09T10:51:56.479Z,53296.31
2024-05-09T10:54:26.733Z,53236.69
2024-05-09T10:56:57.923Z,53192.94
2024-05-09T10:59:28.525Z,53202.91
2024-05-09T11:01:56.340Z,53183.00
2024-05-09T11:04:26.884Z,53151.22
2024-05-09T11:06:58.956Z,53165.13
2024-05-09T11:09:30.413Z,53169.09
2024-05-09T11:11:58.209Z,53179.03
2024-05-09T11:14:28.517Z,53119.41
2024-05-09T11:16:59.551Z,53115.44
2024-05-09T11:19:33.528Z,53091.56
2024-05-09T11:22:04.194Z,53057.78
2024-05-09T11:24:34.880Z,53097.53
2024-05-09T11:27:03.818Z,53012.06
2024-05-09T11:29:42.402Z,52998.16
2024-05-09T11:32:11.852Z,53016.03
2024-05-09T11:34:42.440Z,52998.16
2024-05-09T11:37:13.977Z,52974.28
2024-05-09T11:39:44.409Z,53022.00
2024-05-09T11:42:12.334Z,53031.94
2024-05-09T11:44:42.605Z,52992.19
2024-05-09T11:47:10.489Z,52956.41
2024-05-09T11:49:40.837Z,52996.16
2024-05-09T11:52:08.660Z,53027.97
2024-05-09T11:54:41.920Z,53014.06
2024-05-09T11:57:12.575Z,53045.84
2024-05-09T11:59:40.438Z,53037.91
2024-05-09T12:02:11.708Z,53075.66
2024-05-09T12:04:39.829Z,53041.88
2024-05-09T12:07:12.887Z,53051.81
2024-05-09T12:09:43.404Z,53083.63
2024-05-09T12:12:15.108Z,53099.53
2024-05-09T12:14:43.200Z,53101.50
2024-05-09T12:17:13.939Z,53113.44
2024-05-09T12:19:41.752Z,53075.66
2024-05-09T12:22:12.246Z,53103.50
2024-05-09T12:24:42.686Z,53073.69
2024-05-09T12:27:13.277Z,53109.47
2024-05-09T12:29:40.989Z,53010.06
2024-05-09T12:32:11.327Z,52876.91
2024-05-09T12:34:39.089Z,52894.78
2024-05-09T12:37:09.664Z,52882.84
2024-05-09T12:39:37.413Z,52803.34
2024-05-09T12:42:14.598Z,52833.16
2024-05-09T12:44:49.040Z,52779.50
2024-05-09T12:47:19.827Z,52789.44
2024-05-09T12:49:47.760Z,52783.47
2024-05-09T12:52:18.187Z,52741.75
2024-05-09T12:54:46.020Z,52721.84
2024-05-09T12:57:19.090Z,52761.63
2024-05-09T12:59:46.628Z,52787.44
2024-05-09T13:02:17.719Z,52769.56
2024-05-09T13:04:45.756Z,52775.53
2024-05-09T13:07:16.331Z,52789.44
2024-05-09T13:09:44.478Z,52819.25
2024-05-09T13:12:14.783Z,52835.16
2024-05-09T13:14:45.200Z,52946.47
2024-05-09T13:17:16.244Z,52930.56
2024-05-09T13:19:43.895Z,52954.41
2024-05-09T13:22:14.440Z,52950.44
2024-05-09T13:24:42.380Z,52938.50
2024-05-09T13:27:12.919Z,52948.47
2024-05-09T13:29:43.733Z,52966.34
2024-05-09T13:32:17.422Z,52958.41
2024-05-09T13:34:45.437Z,52954.41
2024-05-09T13:37:15.779Z,52936.53
2024-05-09T13:39:43.586Z,52936.53
2024-05-09T13:42:14.049Z,52954.41
2024-05-09T13:44:41.528Z,52938.50
2024-05-09T13:47:12.495Z,52906.72
2024-05-09T13:49:43.038Z,52851.06
2024-05-09T13:52:13.556Z,52870.94
2024-05-09T13:54:41.250Z,52910.69
2024-05-09T13:57:11.905Z,52938.50
2024-05-09T13:59:39.783Z,52851.06
2024-05-09T14:02:11.090Z,52914.66
2024-05-09T14:04:39.319Z,52926.59
2024-05-09T14:07:12.970Z,52910.69
2024-05-09T14:09:40.927Z,52938.50
2024-05-09T14:12:11.793Z,52952.44
2024-05-09T14:14:39.358Z,52962.38
2024-05-09T14:17:09.668Z,52934.53
2024-05-09T14:19:37.500Z,52914.66
2024-05-09T14:22:11.653Z,52926.59
2024-05-09T14:24:39.281Z,52930.56
2024-05-09T14:27:09.517Z,52926.59
2024-05-09T14:29:37.309Z,52918.63
2024-05-09T14:32:08.075Z,52914.66
2024-05-09T14:34:35.940Z,52902.75
2024-05-09T14:37:07.045Z,52906.72
2024-05-09T14:39:37.458Z,52890.81
2024-05-09T14:42:08.155Z,52859.00
2024-05-09T14:44:35.808Z,52876.91
2024-05-09T14:47:06.410Z,52851.06
2024-05-09T14:49:34.043Z,52876.91
2024-05-09T14:52:04.293Z,52882.84
2024-05-09T14:54:31.934Z,52878.88
2024-05-09T14:57:05.325Z,52902.75
2024-05-09T14:59:32.858Z,52908.69
2024-05-09T15:02:03.439Z,52962.38
2024-05-09T15:04:32.842Z,52904.72
2024-05-09T15:07:03.622Z,52872.91
2024-05-09T15:09:36.117Z,52898.75
2024-05-09T15:12:10.146Z,52902.75
2024-05-09T15:14:38.862Z,52922.63
2024-05-09T15:17:09.264Z,52910.69
2024-05-09T15:19:37.469Z,52928.56
2024-05-09T15:22:08.299Z,52930.56
2024-05-09T15:24:36.111Z,52930.56
2024-05-09T15:27:09.402Z,52914.66
2024-05-09T15:29:37.495Z,52936.53
2024-05-09T15:32:08.210Z,52918.63
2024-05-09T15:34:35.902Z,52938.50
2024-05-09T15:37:06.718Z,52946.47
2024-05-09T15:39:34.358Z,52948.47
2024-05-09T15:42:08.880Z,52934.53
2024-05-09T15:44:36.375Z,52934.53
2024-05-09T15:47:07.365Z,52958.41
2024-05-09T15:49:35.559Z,52914.66
2024-05-09T15:52:06.157Z,52930.56
2024-05-09T15:54:33.752Z,52934.53
2024-05-09T15:57:04.194Z,52966.34
2024-05-09T15:59:35.097Z,52938.50
2024-05-09T16:02:06.097Z,52974.28
2024-05-09T16:04:34.070Z,52982.25
2024-05-09T16:07:04.514Z,52946.47
2024-05-09T16:09:32.377Z,52988.22
2024-05-09T16:12:02.575Z,52962.38
2024-05-09T16:14:30.036Z,52950.44
2024-05-09T16:17:03.355Z,52972.31
2024-05-09T16:19:31.195Z,52984.22
2024-05-09T16:22:02.769Z,52970.31
2024-05-09T16:24:30.480Z,52958.41
2024-05-09T16:27:00.999Z,52988.22
2024-05-09T16:29:28.901Z,52974.28
2024-05-09T16:31:59.186Z,52992.19
2024-05-09T16:34:29.802Z,52982.25
2024-05-09T16:37:00.906Z,52954.41
2024-05-09T16:39:28.519Z,52996.16
2024-05-09T16:41:58.963Z,53025.97
2024-05-09T16:44:26.738Z,52988.22
2024-05-09T16:46:57.030Z,52998.16
2024-05-09T16:49:26.946Z,52994.16
2024-05-09T16:52:00.063Z,52974.28
2024-05-09T16:54:27.637Z,52996.16
2024-05-09T16:56:57.951Z,52998.16
2024-05-09T16:59:25.872Z,52998.16
2024-05-09T17:01:58.745Z,53018.03
2024-05-09T17:04:27.958Z,53025.97
2024-05-09T17:07:01.329Z,52992.19
2024-05-09T17:09:29.081Z,53035.91
2024-05-09T17:11:59.521Z,53057.78
2024-05-09T17:14:29.891Z,53041.88
2024-05-09T17:17:00.641Z,53010.06
2024-05-09T17:19:31.244Z,53049.84
2024-05-09T17:22:01.644Z,53077.66
2024-05-09T17:24:31.952Z,53111.44
2024-05-09T17:27:02.812Z,53101.50
2024-05-09T17:29:33.459Z,53125.38
2024-05-09T17:32:01.193Z,53107.47
2024-05-09T17:34:31.758Z,53111.44
2024-05-09T17:37:02.681Z,53097.53
2024-05-09T17:39:33.369Z,53109.47
2024-05-09T17:42:01.602Z,53127.34
2024-05-09T17:44:32.126Z,53141.28
2024-05-09T17:47:00.312Z,53127.34
2024-05-09T17:49:30.963Z,53143.25
2024-05-09T17:51:58.913Z,53143.25
2024-05-09T17:54:32.391Z,53143.25
2024-05-09T17:57:00.501Z,53147.22
2024-05-09T17:59:31.174Z,53196.94
2024-05-09T18:01:59.271Z,53194.94
2024-05-09T18:04:32.693Z,53188.97
2024-05-09T18:07:01.605Z,53192.94
2024-05-09T18:09:35.615Z,53228.75
2024-05-09T18:12:03.845Z,53258.56
2024-05-09T18:14:34.266Z,53284.41
2024-05-09T18:17:03.303Z,53308.25
2024-05-09T18:19:34.166Z,53336.09
2024-05-09T18:22:02.420Z,53338.06
2024-05-09T18:24:35.611Z,53324.16
2024-05-09T18:27:03.412Z,53324.16
2024-05-09T18:29:34.121Z,53348.00
2024-05-09T18:32:01.959Z,53387.78
2024-05-09T18:34:32.591Z,53397.72
2024-05-09T18:37:02.914Z,53437.47
2024-05-09T18:39:36.817Z,53459.34
2024-05-09T18:42:04.963Z,53473.25
2024-05-09T18:44:35.388Z,53538.88
2024-05-09T18:47:04.283Z,53687.97
2024-05-09T18:49:34.851Z,53779.44
2024-05-09T18:52:02.592Z,53994.16
2024-05-09T18:54:33.172Z,54284.47
2024-05-09T18:57:03.844Z,54544.97
2024-05-09T18:59:34.428Z,55072.03
2024-05-09T19:02:03.445Z,55324.63
2024-05-09T19:04:34.503Z,55410.16
2024-05-09T19:07:04.436Z,55961.22
2024-05-09T19:09:35.624Z,56359.13
2024-05-09T19:12:06.668Z,57007.84
2024-05-09T19:14:37.142Z,56651.66
2024-05-09T19:17:05.121Z,56808.84
2024-05-09T19:19:35.580Z,56462.59
2024-05-09T19:22:06.751Z,57171.06
2024-05-09T19:24:38.990Z,57220.81
2024-05-09T19:27:09.534Z,58007.03
2024-05-09T19:29:39.997Z,59319.19
2024-05-09T19:32:07.835Z,61006.38
2024-05-09T19:34:38.301Z,60813.09
2024-05-09T19:37:06.029Z,63055.25
2024-05-09T19:39:36.552Z,64776.22
2024-05-09T19:42:05.116Z,66448.16
2024-05-09T19:44:38.519Z,66605.81
2024-05-09T19:47:06.417Z,68250.69
2024-05-09T19:49:36.901Z,70419.81
2024-05-09T19:52:05.367Z,72978.16
2024-05-09T19:54:35.795Z,76563.09
2024-05-09T19:57:04.203Z,78100.63
2024-05-09T19:59:37.632Z,79638.84
2024-05-09T20:02:09.262Z,81434.31
2024-05-09T20:04:39.895Z,82204.09
2024-05-09T20:07:07.845Z,82717.38
2024-05-09T20:09:38.965Z,84514.44
2024-05-09T20:12:07.079Z,85798.66
2024-05-09T20:14:40.377Z,87083.34
2024-05-09T20:17:08.326Z,88625.56
2024-05-09T20:19:38.779Z,88882.69
2024-05-09T20:22:06.732Z,90168.50
2024-05-09T20:24:39.918Z,90168.50
2024-05-09T20:27:08.159Z,91197.50
2024-05-09T20:29:44.110Z,89654.13
2024-05-09T20:32:12.664Z,90425.72
2024-05-09T20:34:43.379Z,91969.47
2024-05-09T20:37:11.438Z,92741.59
2024-05-09T20:39:42.174Z,93513.91
2024-05-09T20:42:10.369Z,92226.81
2024-05-09T20:44:43.670Z,92999.00
2024-05-09T20:47:12.286Z,94543.91
2024-05-09T20:49:42.759Z,95316.59
2024-05-09T20:52:10.859Z,95574.19
2024-05-09T20:54:42.215Z,97635.72
2024-05-09T20:57:10.637Z,98409.13
2024-05-09T20:59:43.820Z,97120.22
2024-05-09T21:02:11.817Z,97377.97
2024-05-09T21:04:42.726Z,97377.97
2024-05-09T21:07:10.758Z,97377.97
2024-05-09T21:09:41.379Z,97893.50
2024-05-09T21:12:09.111Z,97635.72
2024-05-09T21:14:39.631Z,97893.50
2024-05-09T21:17:10.291Z,97893.50
2024-05-09T21:19:40.626Z,98409.13
2024-05-09T21:22:08.355Z,98151.31
2024-05-09T21:24:39.027Z,98666.94
2024-05-09T21:27:06.837Z,98666.94
2024-05-09T21:29:37.104Z,99956.41
2024-05-09T21:32:05.198Z,99698.47
2024-05-09T21:34:39.131Z,99440.56
2024-05-09T21:37:07.976Z,99698.47
2024-05-09T21:39:38.400Z,99698.47
2024-05-09T21:42:10.611Z,100214.34
2024-05-09T21:44:41.556Z,102020.53
2024-05-09T21:47:09.440Z,103569.44
2024-05-09T21:49:42.721Z,103053.06
2024-05-09T21:52:10.884Z,102020.53
2024-05-09T21:54:41.503Z,100988.31
2024-05-09T21:57:10.213Z,101762.47
2024-05-09T21:59:41.774Z,102794.91
2024-05-09T22:02:09.535Z,102794.91
2024-05-09T22:04:42.899Z,105119.03
2024-05-09T22:07:10.714Z,106152.47
2024-05-09T22:09:45.529Z,104860.72
2024-05-09T22:12:13.495Z,103827.66
2024-05-09T22:14:43.793Z,104085.91
2024-05-09T22:17:11.470Z,104085.91
2024-05-09T22:19:48.034Z,106152.47
2024-05-09T22:22:15.772Z,106927.75
2024-05-09T22:24:46.141Z,106669.31
2024-05-09T22:27:13.808Z,105894.09
2024-05-09T22:29:44.328Z,105119.03
2024-05-09T22:32:12.070Z,105119.03
2024-05-09T22:34:44.993Z,105894.09
2024-05-09T22:37:12.994Z,106669.31
2024-05-09T22:39:43.523Z,105377.34
2024-05-09T22:42:10.991Z,105119.03
2024-05-09T22:44:41.256Z,105377.34
2024-05-09T22:47:09.000Z,105635.72
2024-05-09T22:49:40.288Z,105894.09
2024-05-09T22:52:11.042Z,106669.31
2024-05-09T22:54:41.497Z,106152.47
2024-05-09T22:57:09.156Z,105119.03
2024-05-09T22:59:39.331Z,105635.72
2024-05-09T23:02:07.137Z,105377.34
2024-05-09T23:04:37.857Z,105635.72
2024-05-09T23:07:05.395Z,108478.84
2024-05-09T23:09:38.600Z,106410.88
2024-05-09T23:12:07.235Z,106669.31
2024-05-09T23:14:37.486Z,107186.22
2024-05-09T23:17:05.192Z,106927.75
2024-05-09T23:19:35.841Z,106152.47
2024-05-09T23:22:03.778Z,106152.47
2024-05-09T23:24:35.529Z,106669.31
2024-05-09T23:27:06.009Z,107961.72
2024-05-09T23:29:36.308Z,107703.22
2024-05-09T23:32:04.925Z,106669.31
2024-05-09T23:34:35.340Z,108220.28
2024-05-09T23:37:03.113Z,108737.41
2024-05-09T23:39:33.431Z,108220.28
2024-05-09T23:42:01.052Z,107186.22
2024-05-09T23:44:33.992Z,107703.22
2024-05-09T23:47:01.564Z,106927.75
2024-05-09T23:49:31.717Z,107186.22
2024-05-09T23:51:59.627Z,108996.00
2024-05-09T23:54:29.960Z,108737.41
2024-05-09T23:56:57.606Z,108996.00
2024-05-09T23:59:27.843Z,107186.22
